GW4256 Weather Reports


time (UTC)temp
F
wind
direction
speed
knots
gust
knots
rain 1hr
in
rain 24hr
in
rain mn
in
humidity
%
barometer
mb
20260906114524 65 117 0.0 0.0 0.00 0.04 0.00 95 1016.4
20260906113014 65 117 0.0 0.0 0.00 0.04 0.00 95 1016.3
20260906111524 65 163 0.0 0.0 0.00 0.04 0.00 95 1016.2
20260906110026 65 163 0.0 0.0 0.00 0.04 0.00 95 1016.1
20260906104529 64 163 0.0 0.0 0.00 0.04 0.00 95 1015.8
20260906103011 65 163 0.0 0.0 0.00 0.04 0.00 95 1015.6
20260906101514 64 163 0.0 0.0 0.00 0.04 0.00 95 1015.5
20260906100026 64 163 0.0 0.0 0.00 0.04 0.00 95 1015.4
20260906094529 64 163 0.0 0.0 0.00 0.04 0.00 95 1015.4
20260906093033 64 110 0.0 0.0 0.00 0.04 0.00 94 1015.2
20260906091517 64 110 0.0 0.0 0.00 0.04 0.00 94 1015.3
20260906090021 64 110 0.0 0.0 0.00 0.04 0.00 94 1015.2
20260906084532 64 110 0.0 0.0 0.00 0.04 0.00 94 1015.2
20260906083027 65 110 0.0 0.0 0.00 0.04 0.00 94 1015.1
20260906081538 65 110 0.0 0.0 0.00 0.04 0.00 94 1014.9
20260906080016 65 174 0.0 0.0 0.00 0.04 0.00 94 1014.7
20260906074501 65 174 0.0 0.0 0.00 0.04 0.00 94 1014.8
20260906073006 65 174 0.0 1.7 0.00 0.04 0.00 94 1014.9
20260906071508 65 174 0.0 1.7 0.00 0.04 0.00 94 1014.7
20260906070017 66 41 0.0 0.0 0.00 0.04 0.00 94 1014.7
20260906064524 66 41 0.0 1.7 0.00 0.04 0.00 94 1015.0
20260906063003 66 154 0.0 0.0 0.00 0.04 0.00 94 1015.1
20260906061508 66 154 0.0 1.7 0.00 0.04 0.00 94 1015.1
20260906060013 66 29 0.0 1.7 0.00 0.04 0.00 94 1015.1
20260906054519 65 29 0.0 1.7 0.00 0.04 0.00 94 1015.3
20260906053031 65 29 0.0 1.7 0.00 0.04 0.00 94 1015.3
20260906051504 65 29 0.0 1.7 0.00 0.04 0.00 94 1015.4
20260906050013 65 174 0.0 1.7 0.00 0.04 0.00 93 1015.4
20260906044516 65 7 0.9 1.7 0.00 0.04 0.00 93 1015.3
20260906043027 65 25 0.0 1.7 0.00 0.04 0.00 93 1015.3
20260906041530 65 42 0.0 1.7 0.00 0.04 0.00 92 1015.5
20260906040019 65 43 0.0 0.9 0.00 0.04 0.00 92 1015.5
20260906034514 66 36 0.0 1.7 0.00 0.04 0.04 92 1015.5
20260906033020 66 28 0.0 1.7 0.00 0.04 0.04 92 1015.7
20260906031544 66 11 0.9 1.7 0.00 0.04 0.04 92 1015.7
20260906030029 66 156 0.0 1.7 0.00 0.04 0.04 91 1015.8
20260906024512 67 44 0.0 1.7 0.00 0.04 0.04 90 1015.8
20260906023016 67 360 0.9 1.7 0.00 0.04 0.04 90 1015.5
20260906021527 68 13 0.0 1.7 0.00 0.04 0.04 89 1015.4
20260906020035 68 13 0.0 0.0 0.00 0.04 0.04 88 1015.5
20260906014531 69 78 0.0 1.7 0.00 0.04 0.04 87 1015.3
20260906013012 69 359 0.0 0.0 0.00 0.04 0.04 87 1015.0
20260906011523 70 43 0.0 2.6 0.00 0.04 0.04 87 1014.6
20260906010028 71 337 0.9 3.5 0.00 0.04 0.04 86 1014.6
20260906004530 71 347 0.9 4.3 0.00 0.04 0.04 85 1014.4
20260906003010 71 347 0.9 3.5 0.00 0.04 0.04 85 1014.3
20260906001518 72 348 0.9 4.3 0.00 0.04 0.04 85 1014.1
20260906000026 72 356 0.9 3.5 0.00 0.04 0.04 86 1014.1
20260905234533 73 5 0.9 3.5 0.00 0.04 0.04 1014.0
20260905233009 74 24 0.9 1.7 0.00 0.04 0.04 84 1013.9
20260905231517 74 20 0.9 2.6 0.00 0.04 0.04 81 1013.9
20260905230019 76 360 0.9 1.7 0.00 0.04 0.04 79 1014.1
20260905224524 77 31 0.9 1.7 0.00 0.04 0.04 75 1014.0
20260905223028 78 357 0.9 1.7 0.00 0.04 0.04 74 1013.8
20260905221511 79 18 0.9 1.7 0.00 0.08 0.04 71 1013.6
20260905220017 79 330 0.9 1.7 0.00 0.15 0.04 68 1013.3
20260905214527 79 6 0.0 0.0 0.00 0.26 0.04 73 1013.3
20260905213028 79 352 0.0 1.7 0.00 0.38 0.04 71 1013.3
20260905211532 79 315 0.0 1.7 0.00 0.38 0.04 70 1013.1
20260905210016 80 297 0.9 1.7 0.00 0.38 0.04 65 1013.1
20260905204521 80 297 0.9 1.7 0.00 0.38 0.04 65 1013.0
20260905203023 80 278 0.9 1.7 0.00 0.38 0.04 65 1012.9
20260905201532 80 1 0.9 3.5 0.00 0.38 0.04 66 1012.9
20260905200038 81 78 2.6 4.3 0.00 0.38 0.04 65 1013.0
20260905194517 81 303 2.6 4.3 0.00 0.38 0.04 65 1013.2
20260905193026 82 297 0.9 3.5 0.00 0.38 0.04 66 1013.5
20260905191530 82 72 0.9 3.5 0.00 0.38 0.04 65 1013.5
20260905190040 83 226 0.0 2.6 0.00 0.38 0.04 66 1013.8
20260905184535 83 341 1.7 5.2 0.00 0.38 0.04 64 1014.4
20260905183022 82 294 1.7 5.2 0.00 0.38 0.04 67 1014.6
20260905181533 83 326 0.0 1.7 0.00 0.38 0.04 71 1015.0
20260905180011 80 66 1.7 3.5 0.00 0.38 0.04 75 1015.1
20260905174516 80 195 0.0 1.7 0.00 0.38 0.04 74 1015.2
20260905173020 78 321 0.9 2.6 0.00 0.38 0.04 77 1015.4
20260905171539 76 323 1.7 4.3 0.00 0.38 0.04 80 1015.7
20260905170011 75 326 0.9 5.2 0.00 0.38 0.04 84 1015.7
20260905164509 73 35 0.0 2.6 0.00 0.38 0.04 91 1015.7
20260905163018 71 45 0.0 1.7 0.00 0.38 0.04 95 1015.8
20260905161526 71 262 0.0 2.6 0.00 0.38 0.04 96 1015.7
20260905160046 70 176 0.9 2.6 0.00 0.38 0.04 96 1015.8
20260905154510 69 201 0.0 1.7 0.00 0.38 0.04 97 1016.8
20260905153016 68 61 0.0 1.7 0.01 0.38 0.04 96 1017.1
20260905151523 68 359 0.0 1.7 0.03 0.38 0.04 96 1017.3
20260905150030 67 255 0.0 0.0 0.04 0.38 0.04 96 1017.2
20260905144531 67 179 0.0 1.7 0.04 0.38 0.04 96 1017.3
20260905143015 67 150 0.0 0.0 0.03 0.37 0.03 96 1017.3
20260905141524 67 124 0.0 1.7 0.01 0.35 0.01 96 1018.2
20260905140028 67 214 0.0 1.7 0.00 0.34 0.00 96 1017.4
20260905134529 67 100 0.0 0.0 0.00 0.34 0.00 96 1017.1
20260905133031 67 160 0.0 0.0 0.00 0.34 0.00 96 1016.6
20260905131518 67 132 0.0 1.7 0.00 0.34 0.00 96 1016.3
20260905130025 67 95 0.0 0.0 0.00 0.34 0.00 96 1016.2
20260905124527 66 93 0.0 1.7 0.00 0.34 0.00 96 1015.9
20260905123031 65 91 0.0 1.7 0.00 0.34 0.00 96 1016.0
20260905121531 64 113 0.0 1.7 0.00 0.34 0.00 96 1016.1
20260905120036 64 148 0.0 1.7 0.00 0.34 0.00 96 1016.3